Time;durP1;ratioP1;P1;durP2;ratioP2;P2;SDS_P1;SDS_P2;PMS_P1;PMS_P2;Temp;Humidity;BMP_temperature;BMP_pressure;BME280_temperature;BME280_humidity;BME280_pressure;Samples;Min_cycle;Max_cycle;Signal;HPM_P1;HPM_P2
2021/08/30 00:01:11;;;;;;;11.97;7.80;;;;;;;18.48;89.05;98764.59;1635504;86;21031;-70
2021/08/30 00:03:38;;;;;;;;;;;;;;;18.48;89.02;98767.34;1638259;88;21079;-71
2021/08/30 00:06:06;;;;;;;9.95;7.45;;;;;;;18.50;88.93;98773.30;1635545;86;20112;-71
2021/08/30 00:08:32;;;;;;;11.43;7.97;;;;;;;18.45;89.07;98765.28;1635550;88;21106;-71
2021/08/30 00:10:58;;;;;;;;;;;;;;;18.45;89.02;98777.69;1639214;86;21455;-70
2021/08/30 00:13:26;;;;;;;10.15;7.90;;;;;;;18.48;88.98;98763.78;1635186;87;20418;-70
2021/08/30 00:15:56;;;;;;;14.25;8.03;;;;;;;18.43;89.08;98771.70;1635650;87;21107;-71
2021/08/30 00:18:25;;;;;;;10.15;7.42;;;;;;;18.42;89.04;98765.17;1636394;86;21044;-71
2021/08/30 00:20:53;;;;;;;9.03;7.22;;;;;;;18.44;88.96;98767.00;1635232;86;21178;-71
2021/08/30 00:23:21;;;;;;;9.00;7.30;;;;;;;18.47;88.82;98771.81;1635338;87;21051;-71
2021/08/30 00:25:48;;;;;;;9.23;7.55;;;;;;;18.45;88.70;98769.99;1638656;86;21086;-71
2021/08/30 00:28:15;;;;;;;9.73;7.10;;;;;;;18.44;88.59;98774.69;1635933;86;21072;-71
2021/08/30 00:30:41;;;;;;;;;;;;;;;18.48;88.47;98783.07;1638551;86;21094;-71
2021/08/30 00:33:09;;;;;;;;;;;;;;;18.47;88.31;98782.83;1638894;87;20454;-71
2021/08/30 00:35:35;;;;;;;9.05;7.12;;;;;;;18.42;88.38;98783.09;1640924;87;20102;-70
2021/08/30 00:38:02;;;;;;;11.90;8.45;;;;;;;18.38;88.53;98777.47;1636639;86;21036;-71
2021/08/30 00:40:29;;;;;;;10.43;7.85;;;;;;;18.38;88.46;98781.03;1635215;86;21091;-72
2021/08/30 00:42:56;;;;;;;11.75;8.70;;;;;;;18.39;88.45;98774.34;1635679;87;21665;-71
2021/08/30 00:45:24;;;;;;;12.93;8.43;;;;;;;18.39;88.50;98772.16;1629180;86;21055;-72
2021/08/30 00:47:52;;;;;;;12.30;9.18;;;;;;;18.38;88.56;98781.03;1619029;88;21055;-71
2021/08/30 00:50:18;;;;;;;11.55;8.48;;;;;;;18.36;88.62;98780.55;1612083;87;21663;-70
2021/08/30 00:52:45;;;;;;;11.30;8.68;;;;;;;18.37;88.72;98790.44;1608049;89;21066;-71
2021/08/30 00:55:12;;;;;;;11.12;9.05;;;;;;;18.39;88.73;98794.20;1609049;87;21656;-71
2021/08/30 00:57:39;;;;;;;12.03;8.55;;;;;;;18.37;88.68;98790.44;1606197;89;21032;-72
2021/08/30 01:00:08;;;;;;;11.97;8.30;;;;;;;18.39;88.60;98783.98;1606933;88;21148;-71
2021/08/30 01:02:39;;;;;;;10.28;7.45;;;;;;;18.42;88.50;98790.78;1606533;89;21024;-72
2021/08/30 01:05:07;;;;;;;11.73;8.50;;;;;;;18.46;88.42;98790.89;1606330;88;21151;-71
2021/08/30 01:08:01;;;;;;;13.35;8.70;;;;;;;18.49;88.25;98798.47;1605365;88;21031;-72
2021/08/30 01:10:51;;;;;;;10.60;8.98;;;;;;;18.52;88.18;98790.91;1603614;88;21138;-70
2021/08/30 01:13:34;;;;;;;12.28;9.20;;;;;;;18.50;88.21;98787.64;1635080;86;21074;-70
2021/08/30 01:16:02;;;;;;;12.85;9.40;;;;;;;18.50;88.28;98787.08;1636060;86;21095;-70
2021/08/30 01:18:28;;;;;;;11.73;8.60;;;;;;;18.47;88.21;98785.02;1635734;88;20984;-70
2021/08/30 01:21:22;;;;;;;11.03;8.65;;;;;;;18.48;88.24;98794.91;1640489;86;21127;-70
2021/08/30 01:23:56;;;;;;;11.95;9.28;;;;;;;18.52;88.24;98782.64;1590748;89;21057;-71
2021/08/30 01:26:25;;;;;;;11.88;9.23;;;;;;;18.51;88.08;98783.21;1633980;86;21075;-71
2021/08/30 01:29:09;;;;;;;12.18;7.30;;;;;;;18.51;88.03;98787.91;1635320;86;21008;-71
2021/08/30 01:32:00;;;;;;;10.15;8.38;;;;;;;18.51;88.07;98774.14;1610265;87;21039;-71
2021/08/30 01:34:27;;;;;;;13.35;9.73;;;;;;;18.47;88.03;98776.75;1613254;86;21059;-71
2021/08/30 01:36:53;;;;;;;15.95;10.50;;;;;;;18.40;88.16;98769.07;1616326;87;21074;-71
2021/08/30 01:39:20;;;;;;;13.60;9.50;;;;;;;18.42;88.45;98775.63;1639100;87;21039;-70
2021/08/30 01:41:47;;;;;;;9.95;8.95;;;;;;;18.45;88.59;98779.63;1635792;86;21601;-71
2021/08/30 01:44:13;;;;;;;13.43;9.05;;;;;;;18.46;88.60;98785.38;1621897;87;21470;-71
2021/08/30 01:46:40;;;;;;;13.78;9.70;;;;;;;18.46;88.72;98781.25;1614287;87;21114;-71
2021/08/30 01:49:08;;;;;;;11.75;9.70;;;;;;;18.49;88.73;98786.06;1635258;86;21011;-71
2021/08/30 01:51:35;;;;;;;11.55;9.63;;;;;;;18.51;88.76;98778.27;1653450;86;21747;-70
2021/08/30 01:54:02;;;;;;;10.93;8.98;;;;;;;18.53;88.85;98784.25;1622814;88;21211;-71
2021/08/30 01:56:30;;;;;;;11.93;9.05;;;;;;;18.58;88.86;98794.45;1627873;86;21147;-72
2021/08/30 02:01:43;;;;;;;10.08;8.33;;;;;;;18.68;88.89;98822.11;1606490;88;21039;-70
2021/08/30 02:04:09;;;;;;;11.25;8.25;;;;;;;18.70;89.11;98836.37;1606795;88;21510;-71
2021/08/30 02:06:37;;;;;;;12.18;8.80;;;;;;;18.73;88.78;98856.34;1606399;89;21086;-71
2021/08/30 02:09:04;;;;;;;9.28;7.87;;;;;;;18.78;88.70;98856.90;1606680;88;20971;-72
2021/08/30 02:11:35;;;;;;;12.55;9.10;;;;;;;18.85;88.53;98856.31;1606447;88;21562;-72
2021/08/30 02:14:03;;;;;;;11.25;9.50;;;;;;;18.86;88.34;98879.98;1621538;88;21051;-71
2021/08/30 02:16:29;;;;;;;12.82;8.90;;;;;;;18.89;88.25;98859.98;1609562;88;21127;-72
2021/08/30 02:19:10;;;;;;;12.43;9.45;;;;;;;18.87;88.07;98850.70;1606563;89;21020;-72
2021/08/30 02:21:46;;;;;;;16.77;8.45;;;;;;;18.87;87.98;98843.00;1605891;88;21115;-71
2021/08/30 02:24:31;;;;;;;13.25;8.58;;;;;;;18.86;87.96;98842.77;1606732;89;21051;-73
2021/08/30 02:27:10;;;;;;;13.98;8.95;;;;;;;18.82;87.98;98847.36;1601181;88;21224;-73
2021/08/30 02:29:47;;;;;;;10.68;8.30;;;;;;;18.77;88.14;98854.50;1607053;88;21066;-71
2021/08/30 02:32:14;;;;;;;10.93;8.93;;;;;;;18.75;88.23;98847.95;1589770;88;21040;-71
2021/08/30 02:34:46;;;;;;;12.25;8.88;;;;;;;18.74;88.26;98840.04;1606264;88;21506;-71
2021/08/30 02:37:12;;;;;;;10.78;8.25;;;;;;;18.75;88.29;98838.30;1607677;88;21043;-70
2021/08/30 02:39:39;;;;;;;13.30;9.03;;;;;;;18.74;88.25;98824.88;1593495;88;21551;-72
2021/08/30 02:42:06;;;;;;;11.33;7.92;;;;;;;18.72;88.19;98821.08;1602680;89;21087;-71
2021/08/30 02:44:33;;;;;;;11.75;8.48;;;;;;;18.67;88.20;98814.41;1606588;88;21019;-70
2021/08/30 02:47:01;;;;;;;10.50;8.38;;;;;;;18.65;88.20;98820.05;1612373;88;21059;-72
2021/08/30 02:49:27;;;;;;;13.15;8.55;;;;;;;18.62;88.25;98812.48;1598551;89;21023;-71
2021/08/30 02:51:55;;;;;;;11.45;8.68;;;;;;;18.61;88.22;98823.27;1580468;90;21090;-73
2021/08/30 02:54:21;;;;;;;12.93;8.98;;;;;;;18.60;88.21;98814.80;1578516;91;21019;-71
2021/08/30 02:56:48;;;;;;;12.68;8.23;;;;;;;18.56;88.24;98816.06;1570374;89;21142;-72
2021/08/30 02:59:14;;;;;;;12.55;8.15;;;;;;;18.55;88.26;98819.15;1584169;88;21514;-72
2021/08/30 03:01:42;;;;;;;11.43;8.90;;;;;;;18.55;88.34;98817.77;1598698;89;21155;-73
2021/08/30 03:04:11;;;;;;;12.33;8.03;;;;;;;18.54;88.31;98820.29;1609908;88;21044;-70
2021/08/30 03:06:38;;;;;;;10.20;8.48;;;;;;;18.53;88.25;98822.84;1609215;88;21103;-72
2021/08/30 03:09:05;;;;;;;10.45;8.63;;;;;;;18.51;88.31;98825.12;1608182;88;21064;-71
2021/08/30 03:11:32;;;;;;;12.23;8.68;;;;;;;18.48;88.30;98824.41;1608292;87;21597;-73
2021/08/30 03:13:58;;;;;;;10.50;7.97;;;;;;;18.49;88.32;98823.27;1610884;88;21127;-71
2021/08/30 03:16:27;;;;;;;13.55;8.55;;;;;;;18.49;88.36;98823.27;1610871;87;21135;-71
2021/08/30 03:18:53;;;;;;;14.70;8.48;;;;;;;18.49;88.36;98821.89;1610485;88;21074;-71
2021/08/30 03:21:20;;;;;;;12.43;8.23;;;;;;;18.49;88.38;98832.91;1622344;87;21680;-71
2021/08/30 03:23:47;;;;;;;13.58;8.50;;;;;;;18.50;88.36;98842.77;1624416;88;21056;-73
2021/08/30 03:26:14;;;;;;;13.72;8.38;;;;;;;18.50;88.31;98843.57;1607499;87;21083;-70
2021/08/30 03:28:40;;;;;;;;;;;;;;;18.50;88.24;98840.01;1628547;87;21517;-72
2021/08/30 03:31:06;;;;;;;14.35;8.28;;;;;;;18.49;88.20;98839.80;1638412;86;20185;-71
2021/08/30 03:33:33;;;;;;;8.73;7.33;;;;;;;18.42;88.34;98831.31;1640199;86;21031;-72
2021/08/30 03:35:59;;;;;;;11.70;8.33;;;;;;;18.44;88.32;98827.05;1637469;86;21668;-72
2021/08/30 03:38:25;;;;;;;;;;;;;;;18.44;88.20;98826.23;1618852;86;21518;-72
2021/08/30 03:40:52;;;;;;;11.75;8.43;;;;;;;18.47;88.16;98814.52;1639508;86;20164;-71
2021/08/30 03:43:19;;;;;;;13.03;8.83;;;;;;;18.42;88.22;98809.27;1645332;86;21669;-72
2021/08/30 03:45:46;;;;;;;11.88;8.58;;;;;;;18.43;88.15;98806.72;1638243;86;21062;-72
2021/08/30 03:48:13;;;;;;;10.15;7.92;;;;;;;18.40;88.06;98802.14;1637698;86;21036;-70
2021/08/30 03:50:40;;;;;;;10.18;8.20;;;;;;;18.40;88.02;98801.33;1637750;86;21487;-71
2021/08/30 03:53:06;;;;;;;11.88;8.83;;;;;;;18.40;87.99;98804.09;1638930;86;21038;-71
2021/08/30 03:55:33;;;;;;;12.95;8.53;;;;;;;18.41;87.95;98800.19;1641104;86;21050;-71
2021/08/30 03:57:59;;;;;;;12.82;8.03;;;;;;;18.44;87.93;98800.06;1625798;87;21029;-69
2021/08/30 04:00:27;;;;;;;12.15;8.40;;;;;;;18.47;87.87;98805.69;1612749;88;21554;-70
2021/08/30 04:02:54;;;;;;;9.93;7.83;;;;;;;18.50;87.80;98798.09;1626677;88;21061;-70
2021/08/30 04:05:23;;;;;;;9.88;8.25;;;;;;;18.52;87.65;98801.36;1628120;87;21135;-71
2021/08/30 04:07:52;;;;;;;12.03;8.45;;;;;;;18.55;87.58;98805.37;1599302;88;21098;-70
2021/08/30 04:10:19;;;;;;;12.37;8.38;;;;;;;18.57;87.51;98803.05;1623119;87;21083;-70
2021/08/30 04:12:46;;;;;;;11.60;7.90;;;;;;;18.61;87.52;98803.97;1618133;88;21108;-70
2021/08/30 04:15:12;;;;;;;12.82;7.95;;;;;;;18.68;87.51;98800.05;1614157;87;21063;-71
2021/08/30 04:17:38;;;;;;;;;;;;;;;18.72;87.40;98794.08;1620734;88;21042;-71
2021/08/30 04:20:09;;;;;;;14.05;8.68;;;;;;;18.74;87.24;98792.57;1617079;88;20137;-71
2021/08/30 04:22:36;;;;;;;11.08;7.92;;;;;;;18.73;87.23;98790.18;1589954;88;21075;-71
2021/08/30 04:25:04;;;;;;;11.95;8.68;;;;;;;18.79;87.25;98786.83;1622215;88;21503;-71
2021/08/30 04:27:30;;;;;;;10.45;7.55;;;;;;;18.91;87.14;98792.09;1626178;88;21103;-71
2021/08/30 04:29:56;;;;;;;;;;;;;;;19.01;86.86;98778.61;1630825;87;21083;-72
2021/08/30 04:32:23;;;;;;;10.70;7.85;;;;;;;19.10;86.56;98783.39;1625333;88;20124;-71
2021/08/30 04:34:49;;;;;;;9.13;7.53;;;;;;;19.11;86.32;98790.52;1620419;88;21909;-72
2021/08/30 04:37:16;;;;;;;;;;;;;;;19.20;86.25;98804.95;1610893;88;21091;-71
2021/08/30 04:39:43;;;;;;;14.90;8.00;;;;;;;19.31;85.92;98821.81;1627301;88;20125;-71
2021/08/30 04:42:10;;;;;;;12.05;7.65;;;;;;;19.37;85.73;98834.23;1627195;88;21174;-71
2021/08/30 04:44:36;;;;;;;13.13;7.65;;;;;;;19.49;85.49;98852.70;1627028;88;21563;-71
2021/08/30 04:47:05;;;;;;;14.25;7.92;;;;;;;19.60;85.03;98874.51;1615675;87;21111;-71
2021/08/30 04:49:32;;;;;;;13.80;7.87;;;;;;;19.63;84.38;98881.52;1610310;88;21130;-71
2021/08/30 04:51:58;;;;;;;13.30;7.53;;;;;;;19.59;83.93;98894.41;1623107;87;21067;-72
2021/08/30 04:54:24;;;;;;;8.75;7.03;;;;;;;19.59;83.91;98894.41;1628395;87;21055;-71
2021/08/30 04:56:50;;;;;;;11.40;7.30;;;;;;;19.62;83.96;98892.35;1628588;87;21084;-72
2021/08/30 04:59:17;;;;;;;12.95;7.50;;;;;;;19.65;83.67;98878.41;1637617;87;21004;-72
2021/08/30 05:01:44;;;;;;;9.98;7.80;;;;;;;19.60;83.48;98851.05;1637079;88;21079;-70
2021/08/30 05:04:10;;;;;;;8.73;7.15;;;;;;;19.44;83.46;98796.39;1637310;88;21098;-71
2021/08/30 05:06:36;;;;;;;10.88;7.53;;;;;;;19.29;83.69;98746.30;1655401;86;21656;-71
2021/08/30 05:09:04;;;;;;;11.53;8.03;;;;;;;19.17;83.94;98726.23;1656219;86;21122;-72
2021/08/30 05:11:31;;;;;;;12.25;8.25;;;;;;;19.05;84.30;98762.97;1644278;86;21554;-71
2021/08/30 05:14:01;;;;;;;9.80;7.75;;;;;;;19.00;84.59;98780.33;1637336;88;21526;-72
2021/08/30 05:16:28;;;;;;;15.13;8.40;;;;;;;19.01;84.78;98784.13;1641338;87;21167;-72
2021/08/30 05:18:55;;;;;;;11.00;8.40;;;;;;;19.03;84.84;98781.81;1637550;87;21549;-72
2021/08/30 05:21:22;;;;;;;11.63;7.80;;;;;;;19.04;84.88;98791.70;1637494;86;21131;-72
2021/08/30 05:23:49;;;;;;;9.53;7.78;;;;;;;19.05;84.88;98789.75;1640241;87;21124;-72
2021/08/30 05:26:15;;;;;;;13.05;8.58;;;;;;;19.05;84.88;98791.13;1656204;86;21126;-72
2021/08/30 05:28:42;;;;;;;12.37;8.60;;;;;;;19.07;84.78;98788.80;1656505;86;21577;-72
2021/08/30 05:31:08;;;;;;;12.25;8.65;;;;;;;19.08;84.82;98802.83;1640780;86;21059;-72
2021/08/30 05:33:36;;;;;;;16.93;9.35;;;;;;;19.09;84.81;98791.46;1637321;88;21039;-72
2021/08/30 05:36:05;;;;;;;11.38;8.30;;;;;;;19.10;84.80;98786.15;1641503;86;21039;-72
2021/08/30 05:38:31;;;;;;;10.93;8.48;;;;;;;19.11;84.77;98791.90;1655921;87;21016;-72
2021/08/30 05:40:58;;;;;;;14.13;8.88;;;;;;;19.14;84.75;98791.77;1641703;86;21020;-71
2021/08/30 05:43:24;;;;;;;14.13;8.35;;;;;;;19.16;84.88;98800.52;1656192;86;21582;-71
2021/08/30 05:45:51;;;;;;;12.20;8.13;;;;;;;19.21;84.80;98796.11;1656247;86;21079;-72
2021/08/30 05:48:17;;;;;;;11.20;8.75;;;;;;;19.25;84.60;98789.55;1656127;86;21470;-72
2021/08/30 05:50:43;;;;;;;11.93;8.55;;;;;;;19.27;84.40;98793.34;1644302;86;21019;-71
2021/08/30 05:53:12;;;;;;;11.12;8.05;;;;;;;19.28;84.33;98804.02;1646151;87;21035;-72
2021/08/30 05:55:38;;;;;;;11.30;7.60;;;;;;;19.32;84.28;98811.81;1656048;86;21074;-71
2021/08/30 05:58:05;;;;;;;14.03;7.75;;;;;;;19.38;84.30;98817.30;1649759;86;21616;-72
2021/08/30 06:00:31;;;;;;;10.50;7.92;;;;;;;19.45;84.17;98813.19;1644069;86;21058;-71
2021/08/30 06:02:57;;;;;;;11.85;8.13;;;;;;;19.50;84.14;98815.67;1638325;86;21037;-72
2021/08/30 06:05:24;;;;;;;9.50;7.33;;;;;;;19.58;84.03;98824.38;1642560;86;21080;-71
2021/08/30 06:07:50;;;;;;;11.88;8.30;;;;;;;19.59;83.66;98806.67;1644502;86;21122;-72
2021/08/30 06:10:17;;;;;;;15.45;8.60;;;;;;;19.62;83.75;98786.64;1641893;86;21131;-70
2021/08/30 06:12:43;;;;;;;12.80;7.75;;;;;;;19.66;83.65;98783.39;1638629;86;21042;-71
2021/08/30 06:15:10;;;;;;;13.03;8.23;;;;;;;19.68;83.66;98794.30;1637880;86;21086;-71
2021/08/30 06:17:37;;;;;;;15.03;8.28;;;;;;;19.77;83.68;98793.54;1637941;87;21042;-71
2021/08/30 06:20:04;;;;;;;9.13;8.13;;;;;;;19.83;83.52;98787.19;1637307;86;21510;-71
2021/08/30 06:22:31;;;;;;;19.30;9.53;;;;;;;19.92;83.39;98791.14;1636904;87;21074;-72
2021/08/30 06:24:58;;;;;;;13.70;8.08;;;;;;;20.06;83.38;98796.45;1636825;86;21103;-72
2021/08/30 06:27:24;;;;;;;13.08;7.95;;;;;;;20.25;83.48;98799.88;1638376;87;21049;-72
2021/08/30 06:29:50;;;;;;;13.55;7.60;;;;;;;20.53;83.24;98805.31;1641271;87;21058;-72
2021/08/30 06:32:17;;;;;;;10.18;8.45;;;;;;;20.81;82.42;98810.10;1637434;87;21090;-71
2021/08/30 06:34:44;;;;;;;14.40;8.13;;;;;;;21.04;81.20;98809.64;1637243;87;21616;-71
2021/08/30 06:37:12;;;;;;;14.07;8.25;;;;;;;21.13;80.11;98801.94;1637573;86;21111;-73
2021/08/30 06:39:38;;;;;;;15.28;8.45;;;;;;;21.14;79.13;98772.30;1639150;87;21058;-72
2021/08/30 06:42:06;;;;;;;12.88;8.50;;;;;;;21.14;78.60;98770.92;1640088;86;21052;-72
2021/08/30 06:44:33;;;;;;;14.60;9.03;;;;;;;21.14;78.21;98780.61;1616026;87;21111;-73
2021/08/30 06:46:59;;;;;;;12.33;8.65;;;;;;;21.13;78.17;98790.88;1639485;86;21067;-73
2021/08/30 06:49:26;;;;;;;13.55;7.97;;;;;;;21.15;78.13;98800.20;1639472;86;21011;-74
2021/08/30 06:51:53;;;;;;;14.03;8.43;;;;;;;21.25;78.20;98789.35;1637072;87;21074;-71
2021/08/30 06:54:19;;;;;;;10.63;7.78;;;;;;;21.40;77.91;98783.48;1636520;87;21047;-73
2021/08/30 06:56:46;;;;;;;10.13;7.40;;;;;;;21.66;78.47;98798.83;1639637;87;21616;-71
2021/08/30 06:59:13;;;;;;;13.75;8.73;;;;;;;21.94;77.32;98808.27;1638602;87;21467;-72
2021/08/30 07:01:39;;;;;;;11.97;8.68;;;;;;;22.04;75.80;98781.91;1632616;87;21097;-71
2021/08/30 07:04:06;;;;;;;11.40;8.13;;;;;;;21.98;75.23;98777.85;1636099;87;21021;-70
2021/08/30 07:06:33;;;;;;;12.10;8.48;;;;;;;21.83;74.91;98774.80;1618150;87;21488;-71
2021/08/30 07:09:02;;;;;;;14.53;9.18;;;;;;;21.59;75.14;98760.52;1637892;87;21049;-71
2021/08/30 07:11:30;;;;;;;14.40;8.40;;;;;;;21.40;75.77;98779.95;1637880;87;21094;-71
2021/08/30 07:14:01;;;;;;;11.75;8.13;;;;;;;21.31;76.36;98780.16;1640445;87;21053;-74
2021/08/30 07:16:29;;;;;;;15.45;8.75;;;;;;;21.36;76.76;98787.38;1638087;87;21058;-72
2021/08/30 07:18:55;;;;;;;13.75;8.13;;;;;;;21.32;76.57;98796.99;1637511;87;21088;-72
2021/08/30 07:21:23;;;;;;;11.97;8.78;;;;;;;21.36;76.92;98802.59;1639840;86;21674;-72
2021/08/30 07:23:50;;;;;;;14.75;8.88;;;;;;;21.44;76.74;98784.94;1637913;87;21064;-72
2021/08/30 07:26:17;;;;;;;14.30;8.55;;;;;;;21.48;76.84;98753.97;1638525;87;21145;-72
2021/08/30 07:28:45;;;;;;;14.13;9.33;;;;;;;21.45;76.73;98740.87;1637535;87;21081;-72
2021/08/30 07:31:14;;;;;;;17.07;9.03;;;;;;;21.40;76.76;98765.49;1637646;87;21117;-73
2021/08/30 07:33:41;;;;;;;13.13;8.90;;;;;;;21.46;76.94;98768.78;1634045;87;21040;-73
2021/08/30 07:36:07;;;;;;;13.45;9.35;;;;;;;21.60;76.93;98785.08;1638740;87;21079;-74
2021/08/30 07:38:34;;;;;;;15.80;8.75;;;;;;;21.80;76.77;98787.20;1641229;87;21526;-73
2021/08/30 07:41:00;;;;;;;16.60;9.75;;;;;;;22.00;76.21;98770.77;1647582;87;21083;-74
2021/08/30 07:43:26;;;;;;;15.55;9.48;;;;;;;22.09;75.51;98782.41;1647428;87;21064;-72
2021/08/30 07:45:52;;;;;;;14.47;9.75;;;;;;;22.18;74.50;98790.45;1646280;87;21644;-71
2021/08/30 07:48:19;;;;;;;13.68;9.20;;;;;;;22.25;74.20;98801.66;1642845;87;21065;-70
2021/08/30 07:50:46;;;;;;;15.03;9.00;;;;;;;22.35;73.52;98794.13;1631819;87;21183;-72
2021/08/30 07:53:12;;;;;;;14.98;9.08;;;;;;;22.42;72.84;98783.14;1641272;87;21177;-71
2021/08/30 07:55:39;;;;;;;16.20;9.73;;;;;;;22.50;72.98;98788.18;1632626;87;21151;-72
2021/08/30 07:58:05;;;;;;;16.97;10.00;;;;;;;22.53;72.60;98791.63;1644533;87;21087;-72
2021/08/30 08:00:32;;;;;;;16.97;9.33;;;;;;;22.60;71.81;98800.82;1646607;86;21052;-72
2021/08/30 08:06:02;;;;;;;18.85;11.35;;;;;;;22.75;70.81;98780.47;1801660;79;23402;-63
2021/08/30 08:08:28;;;;;;;13.55;8.80;;;;;;;22.69;70.34;98783.95;1752581;82;20984;-65
2021/08/30 08:10:55;;;;;;;13.88;10.25;;;;;;;22.62;70.55;98783.23;1723133;82;21031;-65
2021/08/30 08:13:22;;;;;;;18.75;9.90;;;;;;;22.56;70.84;98777.00;1752091;82;21031;-63
2021/08/30 08:15:49;;;;;;;15.68;10.60;;;;;;;22.57;71.21;98769.67;1752895;82;21030;-64
2021/08/30 08:18:16;;;;;;;14.10;9.93;;;;;;;22.63;70.41;98769.59;1753206;82;21521;-63
2021/08/30 08:20:43;;;;;;;14.58;10.25;;;;;;;22.72;70.47;98773.48;1732198;82;21094;-63
2021/08/30 08:23:09;;;;;;;16.07;9.80;;;;;;;22.70;70.27;98750.30;1723362;83;21416;-63
2021/08/30 08:25:36;;;;;;;16.50;11.10;;;;;;;22.73;71.08;98750.94;1694635;83;21038;-64
2021/08/30 08:28:04;;;;;;;17.90;10.80;;;;;;;22.90;70.73;98756.50;1723180;83;21450;-63
2021/08/30 08:30:31;;;;;;;18.27;11.15;;;;;;;23.01;69.91;98736.63;1727323;82;21568;-63
2021/08/30 08:32:57;;;;;;;16.57;9.75;;;;;;;23.04;70.06;98746.96;1728820;82;20955;-63
2021/08/30 08:35:24;;;;;;;18.67;10.78;;;;;;;23.20;70.13;98752.31;1752937;82;21534;-63
2021/08/30 08:37:51;;;;;;;19.27;10.85;;;;;;;23.39;69.47;98751.31;1752774;82;21002;-63
2021/08/30 08:40:17;;;;;;;16.70;10.88;;;;;;;23.53;69.24;98750.11;1727223;82;21007;-63
2021/08/30 08:42:44;;;;;;;18.05;11.20;;;;;;;23.69;69.15;98749.30;1723219;83;20983;-64
2021/08/30 08:45:13;;;;;;;16.50;11.70;;;;;;;23.90;68.37;98741.74;1723049;83;20987;-64
2021/08/30 08:47:40;;;;;;;17.25;11.00;;;;;;;24.09;67.37;98743.68;1723119;83;20974;-63
2021/08/30 08:50:08;;;;;;;21.02;12.63;;;;;;;24.18;66.41;98746.98;1741419;82;21003;-63
2021/08/30 08:52:35;;;;;;;17.73;11.22;;;;;;;24.24;65.99;98736.28;1752723;82;20967;-63
2021/08/30 08:55:03;;;;;;;18.75;11.57;;;;;;;24.35;65.95;98740.52;1753045;82;21007;-64
2021/08/30 08:57:29;;;;;;;16.15;11.30;;;;;;;24.57;65.69;98746.44;1751034;82;21027;-63
2021/08/30 09:00:01;;;;;;;20.88;11.85;;;;;;;24.74;65.25;98745.74;1723240;83;21073;-63
2021/08/30 09:02:33;;;;;;;17.90;12.13;;;;;;;24.83;63.86;98753.75;1723343;83;20940;-63
2021/08/30 09:05:00;;;;;;;18.00;11.53;;;;;;;24.90;63.65;98735.72;1723411;83;21486;-63
2021/08/30 09:07:43;;;;;;;15.70;12.10;;;;;;;24.90;63.65;98735.72;1723811;83;21483;-63
2021/08/30 09:10:14;;;;;;;20.17;11.68;;;;;;;25.04;62.88;98735.19;1750398;82;21034;-64
2021/08/30 09:12:42;;;;;;;22.77;12.23;;;;;;;25.10;61.24;98727.24;1727216;82;20967;-62
2021/08/30 09:15:25;;;;;;;20.15;12.15;;;;;;;25.10;61.99;98737.80;1753641;82;21007;-62
2021/08/30 09:17:53;;;;;;;18.70;12.75;;;;;;;25.11;60.89;98730.23;1735615;82;20979;-63
2021/08/30 09:20:22;;;;;;;16.90;13.43;;;;;;;25.06;60.63;98736.17;1722305;83;21025;-63
2021/08/30 09:22:49;;;;;;;20.02;12.68;;;;;;;25.00;60.92;98735.77;1723648;83;20948;-63
2021/08/30 09:25:16;;;;;;;20.90;13.40;;;;;;;24.93;60.81;98721.02;1723298;83;21502;-64
2021/08/30 09:27:51;;;;;;;21.50;13.20;;;;;;;24.93;60.81;98721.02;1725448;82;20983;-63
2021/08/30 09:30:24;;;;;;;20.90;12.53;;;;;;;24.95;60.94;98726.98;1723776;82;20982;-64
2021/08/30 09:32:50;;;;;;;20.25;11.85;;;;;;;24.99;60.09;98737.54;1723443;83;21377;-63
2021/08/30 09:35:18;;;;;;;18.70;12.30;;;;;;;24.99;60.09;98737.54;1723321;83;21081;-63
2021/08/30 09:37:45;;;;;;;19.45;12.58;;;;;;;25.02;60.54;98740.34;1697477;83;20995;-63
2021/08/30 09:40:15;;;;;;;15.90;12.58;;;;;;;25.11;60.23;98745.55;1720391;82;21038;-63
2021/08/30 09:42:51;;;;;;;19.85;12.78;;;;;;;25.19;60.47;98745.17;1723316;83;21573;-64
2021/08/30 09:45:20;;;;;;;15.93;11.93;;;;;;;25.29;60.46;98749.20;1723154;83;21046;-63
2021/08/30 09:47:54;;;;;;;18.27;12.88;;;;;;;25.42;60.39;98739.28;1743604;82;21525;-63
2021/08/30 09:50:33;;;;;;;18.85;12.05;;;;;;;25.55;59.36;98739.73;1738139;82;21001;-63
2021/08/30 09:53:00;;;;;;;19.65;12.50;;;;;;;25.63;59.63;98749.11;1744197;82;20987;-63
2021/08/30 09:55:27;;;;;;;14.73;11.88;;;;;;;25.73;58.62;98741.95;1753198;82;20987;-63
2021/08/30 09:57:54;;;;;;;18.95;11.88;;;;;;;25.72;58.61;98725.02;1753307;82;21470;-63
2021/08/30 10:00:21;;;;;;;16.93;12.43;;;;;;;25.66;58.70;98721.84;1753087;82;20984;-63
2021/08/30 10:02:53;;;;;;;19.32;12.47;;;;;;;25.69;58.85;98730.80;1739315;82;20963;-63
2021/08/30 10:05:21;;;;;;;16.30;11.63;;;;;;;25.74;59.95;98736.59;1723770;82;21398;-63
2021/08/30 10:07:48;;;;;;;17.27;11.40;;;;;;;25.85;59.45;98736.00;1723350;83;21477;-62
2021/08/30 10:10:15;;;;;;;17.73;11.93;;;;;;;25.95;58.18;98726.05;1723292;83;21039;-62
2021/08/30 10:12:44;;;;;;;20.02;12.78;;;;;;;25.87;58.24;98718.27;1751957;82;20947;-63
2021/08/30 10:15:11;;;;;;;19.80;12.50;;;;;;;25.84;58.75;98724.64;1753051;82;21010;-63
2021/08/30 10:17:44;;;;;;;17.35;11.75;;;;;;;25.85;58.33;98726.25;1753322;82;20978;-62
2021/08/30 10:20:19;;;;;;;17.15;12.23;;;;;;;25.81;58.07;98737.98;1752827;82;20991;-63
2021/08/30 10:22:59;;;;;;;21.65;13.72;;;;;;;25.81;58.07;98737.98;1729172;82;21778;-63
2021/08/30 10:25:26;;;;;;;20.52;13.40;;;;;;;25.78;58.45;98742.16;1722389;82;21094;-63
2021/08/30 10:28:05;;;;;;;19.12;13.65;;;;;;;25.75;58.02;98736.17;1724003;82;21430;-63
2021/08/30 10:30:37;;;;;;;19.10;13.38;;;;;;;25.69;57.87;98741.95;1723128;83;21046;-63
2021/08/30 10:33:08;;;;;;;18.05;13.58;;;;;;;25.58;57.76;98738.34;1723427;83;20969;-63
2021/08/30 10:35:39;;;;;;;19.15;12.70;;;;;;;25.49;59.37;98731.53;1723249;83;21011;-63
2021/08/30 10:38:10;;;;;;;20.82;12.75;;;;;;;25.49;59.37;98731.53;1725321;82;21423;-63
2021/08/30 10:40:39;;;;;;;19.85;12.75;;;;;;;25.61;58.81;98739.56;1724926;82;22000;-62
2021/08/30 10:43:13;;;;;;;18.90;12.70;;;;;;;25.77;58.04;98741.36;1753202;82;21403;-63
2021/08/30 10:45:44;;;;;;;17.70;12.65;;;;;;;25.77;58.04;98741.36;1726244;82;20991;-62
2021/08/30 10:48:16;;;;;;;21.97;13.43;;;;;;;25.83;58.03;98745.34;1748784;82;20928;-63
2021/08/30 10:50:50;;;;;;;22.62;12.82;;;;;;;25.91;58.34;98741.97;1722992;83;21770;-62
2021/08/30 10:53:20;;;;;;;22.45;12.93;;;;;;;25.99;57.99;98730.44;1723328;83;21375;-63
2021/08/30 10:55:49;;;;;;;19.23;13.40;;;;;;;26.06;57.59;98736.01;1723069;83;21065;-63
2021/08/30 10:58:25;;;;;;;20.20;12.60;;;;;;;26.09;57.86;98724.05;1743903;82;20964;-63
2021/08/30 11:00:53;;;;;;;19.90;13.40;;;;;;;26.10;57.80;98726.25;1753133;82;21042;-63
2021/08/30 11:03:33;;;;;;;19.00;13.28;;;;;;;26.08;57.44;98716.88;1753027;82;21034;-64
2021/08/30 11:06:12;;;;;;;22.80;12.47;;;;;;;26.02;57.43;98718.48;1752793;81;21521;-64
2021/08/30 11:08:42;;;;;;;20.55;12.98;;;;;;;26.03;58.05;98722.06;1732595;82;21558;-65
2021/08/30 11:11:15;;;;;;;17.55;12.37;;;;;;;26.08;57.95;98730.02;1737415;82;21059;-64
2021/08/30 11:14:02;;;;;;;20.72;13.55;;;;;;;26.12;58.08;98727.44;1753108;82;21030;-64
2021/08/30 11:16:28;;;;;;;;;;;;;;;26.18;58.19;98726.48;1746593;82;21054;-63
2021/08/30 11:19:06;;;;;;;18.98;12.30;;;;;;;26.29;57.13;98717.48;1723531;83;20128;-64
2021/08/30 11:21:53;;;;;;;19.95;12.53;;;;;;;26.20;57.51;98711.52;1722900;83;21573;-64
2021/08/30 11:24:41;;;;;;;18.12;12.37;;;;;;;26.19;58.15;98714.11;1723357;83;21522;-63
2021/08/30 11:27:13;;;;;;;19.57;13.22;;;;;;;26.21;58.02;98713.92;1733204;82;21065;-63
2021/08/30 11:29:46;;;;;;;16.87;12.80;;;;;;;26.19;57.08;98712.71;1751022;82;21438;-64
2021/08/30 11:32:14;;;;;;;18.17;13.25;;;;;;;26.13;57.75;98715.68;1752959;82;21035;-64
2021/08/30 11:34:40;;;;;;;18.62;12.55;;;;;;;26.06;57.87;98726.25;1753081;82;20983;-62
2021/08/30 11:37:09;;;;;;;20.77;13.22;;;;;;;26.06;57.89;98722.06;1725729;82;21035;-63
2021/08/30 11:39:39;;;;;;;14.78;12.98;;;;;;;26.09;58.66;98744.17;1723236;83;21015;-62